createdAt,value
2018-09-10T00:01:10.814Z,2.97
2018-09-10T00:03:39.348Z,2.37
2018-09-10T00:06:07.792Z,2.80
2018-09-10T00:08:36.240Z,4.07
2018-09-10T00:11:04.721Z,3.23
2018-09-10T00:13:33.233Z,3.20
2018-09-10T00:16:01.691Z,2.53
2018-09-10T00:18:30.169Z,2.40
2018-09-10T00:20:58.648Z,5.27
2018-09-10T00:23:27.090Z,2.63
2018-09-10T00:25:55.510Z,4.60
2018-09-10T00:28:23.932Z,2.47
2018-09-10T00:30:52.675Z,2.53
2018-09-10T00:33:21.180Z,2.33
2018-09-10T00:35:49.964Z,2.43
2018-09-10T00:38:18.565Z,3.83
2018-09-10T00:40:47.138Z,1.60
2018-09-10T00:43:15.612Z,2.63
2018-09-10T00:45:44.075Z,2.20
2018-09-10T00:48:12.544Z,3.03
2018-09-10T00:50:41.112Z,4.27
2018-09-10T00:53:09.643Z,2.37
2018-09-10T00:55:38.212Z,2.73
2018-09-10T00:58:06.662Z,2.37
2018-09-10T01:00:35.111Z,4.53
2018-09-10T01:03:03.552Z,2.83
2018-09-10T01:05:32.010Z,2.80
2018-09-10T01:08:00.477Z,2.47
2018-09-10T01:10:28.920Z,2.70
2018-09-10T01:12:57.354Z,2.00
2018-09-10T01:15:25.794Z,2.90
2018-09-10T01:17:54.241Z,2.47
2018-09-10T01:20:22.770Z,4.70
2018-09-10T01:22:51.233Z,2.67
2018-09-10T01:25:19.748Z,2.90
2018-09-10T01:27:48.173Z,6.23
2018-09-10T01:30:16.659Z,4.73
2018-09-10T01:32:45.067Z,3.23
2018-09-10T01:35:13.508Z,2.27
2018-09-10T01:37:41.909Z,4.53
2018-09-10T01:40:10.375Z,3.73
2018-09-10T01:42:38.800Z,2.33
2018-09-10T01:45:07.370Z,2.53
2018-09-10T01:47:35.808Z,3.17
2018-09-10T01:50:04.372Z,2.80
2018-09-10T01:52:32.837Z,3.67
2018-09-10T01:55:01.320Z,4.37
2018-09-10T01:57:29.793Z,2.47
2018-09-10T01:59:58.234Z,3.43
2018-09-10T02:02:26.778Z,3.13
2018-09-10T02:04:55.469Z,2.83
2018-09-10T02:07:24.009Z,3.17
2018-09-10T02:09:52.467Z,2.57
2018-09-10T02:12:24.049Z,2.53
2018-09-10T02:14:53.028Z,2.47
2018-09-10T02:17:21.834Z,2.80
2018-09-10T02:19:50.324Z,3.40
2018-09-10T02:22:18.769Z,3.97
2018-09-10T02:24:47.227Z,2.30
2018-09-10T02:27:15.955Z,2.13
2018-09-10T02:29:44.349Z,4.07
2018-09-10T02:32:14.385Z,2.93
2018-09-10T02:34:42.834Z,3.00
2018-09-10T02:37:11.327Z,4.97
2018-09-10T02:39:39.756Z,2.53
2018-09-10T02:42:08.260Z,3.13
2018-09-10T02:44:36.716Z,3.17
2018-09-10T02:47:05.555Z,1.87
2018-09-10T02:49:33.990Z,2.83
2018-09-10T02:52:02.931Z,2.33
2018-09-10T02:54:31.429Z,2.40
2018-09-10T02:56:59.889Z,2.47
2018-09-10T02:59:28.466Z,3.27
2018-09-10T03:01:57.000Z,2.87
2018-09-10T03:04:25.480Z,3.70
2018-09-10T03:06:54.023Z,3.63
2018-09-10T03:09:22.502Z,3.73
2018-09-10T03:11:50.972Z,2.70
2018-09-10T03:14:19.476Z,3.23
2018-09-10T03:16:47.922Z,3.20
2018-09-10T03:19:16.422Z,5.03
2018-09-10T03:21:44.897Z,2.50
2018-09-10T03:24:13.407Z,2.87
2018-09-10T03:26:42.092Z,4.27
2018-09-10T03:29:10.575Z,5.93
2018-09-10T03:31:39.132Z,4.23
2018-09-10T03:34:07.917Z,3.73
2018-09-10T03:36:36.676Z,5.30
2018-09-10T03:39:06.954Z,4.77
2018-09-10T03:41:35.436Z,4.47
2018-09-10T03:44:03.927Z,3.03
2018-09-10T03:46:32.498Z,4.13
2018-09-10T03:49:01.088Z,6.53
2018-09-10T03:51:29.616Z,7.37
2018-09-10T03:53:58.134Z,5.10
2018-09-10T03:56:26.617Z,3.43
2018-09-10T03:58:55.409Z,5.97
2018-09-10T04:01:23.887Z,3.53
2018-09-10T04:03:52.517Z,6.63
2018-09-10T04:06:21.036Z,5.50
2018-09-10T04:08:49.799Z,5.30
2018-09-10T04:11:18.506Z,5.47
2018-09-10T04:13:46.921Z,4.13
2018-09-10T04:16:15.821Z,7.23
2018-09-10T04:18:44.390Z,4.00
2018-09-10T04:21:12.959Z,5.53
2018-09-10T04:23:41.697Z,5.60
2018-09-10T04:26:10.277Z,5.27
2018-09-10T04:28:38.779Z,7.00
2018-09-10T04:31:07.464Z,4.80
2018-09-10T04:33:35.943Z,5.53
2018-09-10T04:36:04.676Z,4.77
2018-09-10T04:38:33.286Z,5.33
2018-09-10T04:41:01.736Z,4.90
2018-09-10T04:43:30.439Z,4.80
2018-09-10T04:45:58.933Z,3.93
2018-09-10T04:48:27.521Z,5.67
2018-09-10T04:50:56.156Z,4.07
2018-09-10T04:53:25.071Z,5.20
2018-09-10T04:55:53.639Z,5.97
2018-09-10T04:58:22.239Z,4.63
2018-09-10T05:00:50.748Z,4.83
2018-09-10T05:03:19.249Z,5.60
2018-09-10T05:05:47.785Z,5.70
2018-09-10T05:08:16.261Z,6.70
2018-09-10T05:10:44.842Z,5.27
2018-09-10T05:13:13.460Z,7.50
2018-09-10T05:15:42.030Z,5.53
2018-09-10T05:18:10.540Z,6.73
2018-09-10T05:20:39.110Z,4.17
2018-09-10T05:23:07.594Z,9.20
2018-09-10T05:25:36.029Z,5.30
2018-09-10T05:28:04.514Z,5.27
2018-09-10T05:30:33.082Z,7.97
2018-09-10T05:33:01.703Z,7.87
2018-09-10T05:35:30.193Z,4.93
2018-09-10T05:37:58.626Z,6.90
2018-09-10T05:40:27.078Z,7.07
2018-09-10T05:42:55.585Z,5.53
2018-09-10T05:45:24.230Z,7.67
2018-09-10T05:47:52.777Z,8.97
2018-09-10T05:50:21.513Z,7.23
2018-09-10T05:52:50.041Z,11.43
2018-09-10T05:55:18.530Z,7.70
2018-09-10T05:57:47.253Z,7.87
2018-09-10T06:00:15.835Z,9.53
2018-09-10T06:02:44.371Z,7.60
2018-09-10T06:05:12.831Z,9.93
2018-09-10T06:07:41.309Z,5.67
2018-09-10T06:10:09.710Z,7.93
2018-09-10T06:12:38.165Z,10.10
2018-09-10T06:15:06.753Z,6.17
2018-09-10T06:17:35.389Z,12.77
2018-09-10T06:20:04.042Z,15.23
2018-09-10T06:22:34.089Z,10.70
2018-09-10T06:25:02.537Z,11.57
2018-09-10T06:27:30.986Z,6.53
2018-09-10T06:29:59.461Z,7.27
2018-09-10T06:32:27.968Z,10.07
2018-09-10T06:34:56.401Z,12.50
2018-09-10T06:37:24.946Z,8.03
2018-09-10T06:39:53.430Z,8.53
2018-09-10T06:42:21.921Z,8.80
2018-09-10T06:44:50.443Z,11.67
2018-09-10T06:47:18.916Z,11.93
2018-09-10T06:49:47.451Z,10.50
2018-09-10T06:52:15.932Z,7.73
2018-09-10T06:54:44.674Z,7.67
2018-09-10T06:57:13.197Z,7.33
2018-09-10T06:59:41.697Z,11.20
2018-09-10T07:02:10.202Z,11.43
2018-09-10T07:04:38.687Z,11.13
2018-09-10T07:07:07.109Z,11.43
2018-09-10T07:09:35.641Z,10.13
2018-09-10T07:12:04.963Z,13.70
2018-09-10T07:14:33.667Z,12.83
2018-09-10T07:17:02.219Z,11.67
2018-09-10T07:19:30.704Z,14.40
2018-09-10T07:21:59.163Z,12.37
2018-09-10T07:24:27.736Z,11.87
2018-09-10T07:26:56.285Z,11.63
2018-09-10T07:29:24.849Z,9.70
2018-09-10T07:31:53.437Z,11.93
2018-09-10T07:34:28.673Z,11.40
2018-09-10T07:36:57.538Z,13.03
2018-09-10T07:39:26.383Z,14.10
2018-09-10T07:41:54.942Z,13.07
2018-09-10T07:44:23.465Z,14.07
2018-09-10T07:46:52.017Z,12.50
2018-09-10T07:49:20.577Z,16.30
2018-09-10T07:51:49.092Z,13.33
2018-09-10T07:54:17.569Z,13.23
2018-09-10T07:56:46.037Z,13.97
2018-09-10T07:59:14.590Z,16.47
2018-09-10T08:01:43.047Z,12.03
2018-09-10T08:04:11.565Z,15.10
2018-09-10T08:06:40.074Z,20.47
2018-09-10T08:09:09.685Z,15.57
2018-09-10T08:11:38.191Z,14.03
2018-09-10T08:14:07.025Z,16.70
2018-09-10T08:16:35.599Z,14.20
2018-09-10T08:19:04.067Z,17.13
2018-09-10T08:21:32.628Z,17.37
2018-09-10T08:24:01.151Z,12.43
2018-09-10T08:26:29.871Z,20.57
2018-09-10T08:28:58.661Z,15.73
2018-09-10T08:31:27.564Z,19.23
2018-09-10T08:33:56.331Z,17.47
2018-09-10T08:36:24.835Z,14.50
2018-09-10T08:38:53.333Z,15.17
2018-09-10T08:41:21.848Z,22.77
2018-09-10T08:43:50.381Z,17.07
2018-09-10T08:46:18.961Z,15.97
2018-09-10T08:48:49.426Z,10.27
2018-09-10T08:51:17.894Z,15.97
2018-09-10T08:53:46.398Z,15.53
2018-09-10T08:56:15.153Z,13.30
2018-09-10T08:58:43.289Z,13.62
2018-09-10T09:01:12.064Z,14.70
2018-09-10T09:03:40.551Z,14.40
2018-09-10T09:06:09.214Z,14.33
2018-09-10T09:08:37.853Z,18.65
2018-09-10T09:11:06.373Z,12.15
2018-09-10T09:13:34.886Z,15.68
2018-09-10T09:16:03.371Z,16.10
2018-09-10T09:18:31.820Z,9.63
2018-09-10T09:21:00.274Z,17.05
2018-09-10T09:23:28.940Z,16.32
2018-09-10T09:25:57.388Z,15.40
2018-09-10T09:28:25.867Z,18.20
2018-09-10T09:30:54.385Z,13.88
2018-09-10T09:33:22.806Z,12.47
2018-09-10T09:35:56.768Z,16.10
2018-09-10T09:38:30.424Z,18.83
2018-09-10T09:41:04.358Z,15.27
2018-09-10T09:43:38.265Z,16.03
2018-09-10T09:46:08.826Z,14.40
2018-09-10T09:48:37.316Z,22.03
2018-09-10T09:51:05.846Z,16.13
2018-09-10T09:53:34.986Z,14.73
2018-09-10T09:56:03.527Z,15.80
2018-09-10T09:58:31.992Z,13.55
2018-09-10T10:01:23.065Z,16.70
2018-09-10T10:03:56.059Z,13.20
2018-09-10T10:06:25.177Z,14.13
2018-09-10T10:08:53.855Z,12.47
2018-09-10T10:11:24.026Z,11.93
2018-09-10T10:13:52.448Z,17.37
2018-09-10T10:16:20.928Z,14.57
2018-09-10T10:18:49.383Z,10.37
2018-09-10T10:21:17.872Z,12.70
2018-09-10T10:23:46.417Z,15.13
2018-09-10T10:26:14.892Z,10.23
2018-09-10T10:28:43.322Z,16.73
2018-09-10T10:31:11.913Z,13.17
2018-09-10T10:33:40.407Z,12.03
2018-09-10T10:36:09.312Z,11.73
2018-09-10T10:38:38.190Z,12.57
2018-09-10T10:41:06.709Z,12.88
2018-09-10T10:43:35.355Z,12.45
2018-09-10T10:46:04.113Z,9.23
2018-09-10T10:48:32.876Z,10.43
2018-09-10T10:51:01.505Z,12.98
2018-09-10T10:53:30.063Z,7.87
2018-09-10T10:55:58.522Z,9.77
2018-09-10T10:58:27.057Z,8.37
2018-09-10T11:00:55.647Z,10.03
2018-09-10T11:03:24.510Z,7.83
2018-09-10T11:05:53.147Z,10.90
2018-09-10T11:08:21.630Z,10.10
2018-09-10T11:10:50.166Z,8.73
2018-09-10T11:13:18.685Z,10.47
2018-09-10T11:15:47.171Z,8.30
2018-09-10T11:18:15.925Z,13.13
2018-09-10T11:20:44.398Z,9.87
2018-09-10T11:23:13.214Z,7.70
2018-09-10T11:25:41.673Z,10.27
2018-09-10T11:28:10.213Z,7.57
2018-09-10T11:30:38.770Z,9.60
2018-09-10T11:33:07.342Z,9.13
2018-09-10T11:35:35.916Z,9.60
2018-09-10T11:38:04.504Z,14.10
2018-09-10T11:40:33.044Z,13.57
2018-09-10T11:43:01.755Z,7.17
2018-09-10T11:45:30.318Z,10.63
2018-09-10T11:47:59.093Z,6.57
2018-09-10T11:50:27.674Z,8.83
2018-09-10T11:52:56.372Z,8.20
2018-09-10T11:55:25.323Z,10.40
2018-09-10T11:57:53.981Z,10.83
2018-09-10T12:00:22.548Z,8.93
2018-09-10T12:02:51.153Z,11.50
2018-09-10T12:05:19.929Z,12.53
2018-09-10T12:07:48.630Z,8.33
2018-09-10T12:10:17.546Z,10.20
2018-09-10T12:12:46.738Z,11.63
2018-09-10T12:15:15.707Z,9.30
2018-09-10T12:17:44.258Z,10.10
2018-09-10T12:20:13.083Z,8.30
2018-09-10T12:22:41.661Z,12.93
2018-09-10T12:25:16.900Z,10.13
2018-09-10T12:27:45.477Z,10.33
2018-09-10T12:30:14.119Z,12.20
2018-09-10T12:32:42.692Z,10.23
2018-09-10T12:35:11.338Z,8.40
2018-09-10T12:37:39.897Z,7.90
2018-09-10T12:40:08.600Z,8.50
2018-09-10T12:42:37.222Z,7.43
2018-09-10T12:45:05.996Z,5.30
2018-09-10T12:47:34.474Z,6.43
2018-09-10T12:50:02.979Z,7.80
2018-09-10T12:52:31.812Z,8.50
2018-09-10T12:55:00.604Z,6.77
2018-09-10T12:57:29.123Z,6.10
2018-09-10T12:59:57.599Z,7.90
2018-09-10T13:02:26.080Z,7.10
2018-09-10T13:04:54.586Z,10.43
2018-09-10T13:07:23.068Z,11.53
2018-09-10T13:09:51.513Z,7.80
2018-09-10T13:12:20.041Z,6.10
2018-09-10T13:14:48.516Z,7.20
2018-09-10T13:17:17.328Z,9.90
2018-09-10T13:19:45.859Z,6.30
2018-09-10T13:22:14.374Z,11.03
2018-09-10T13:24:42.813Z,7.23
2018-09-10T13:27:11.332Z,7.57
2018-09-10T13:29:40.027Z,10.67
2018-09-10T13:32:08.555Z,5.33
2018-09-10T13:34:37.367Z,7.07
2018-09-10T13:37:05.949Z,9.20
2018-09-10T13:39:34.438Z,8.37
2018-09-10T13:42:02.940Z,8.97
2018-09-10T13:44:31.432Z,6.77
2018-09-10T13:46:59.904Z,5.67
2018-09-10T13:49:28.378Z,10.00
2018-09-10T13:51:56.818Z,5.80
2018-09-10T13:54:25.378Z,5.60
2018-09-10T13:56:54.145Z,7.17
2018-09-10T13:59:22.646Z,8.13
2018-09-10T14:01:51.113Z,6.20
2018-09-10T14:04:19.592Z,6.73
2018-09-10T14:06:48.096Z,9.00
2018-09-10T14:09:16.562Z,7.93
2018-09-10T14:11:45.148Z,4.73
2018-09-10T14:14:13.665Z,5.60
2018-09-10T14:16:42.237Z,6.40
2018-09-10T14:19:10.775Z,6.30
2018-09-10T14:21:39.251Z,5.47
2018-09-10T14:24:07.822Z,6.27
2018-09-10T14:26:36.347Z,5.13
2018-09-10T14:29:04.861Z,7.53
2018-09-10T14:31:33.418Z,8.17
2018-09-10T14:34:02.075Z,5.33
2018-09-10T14:36:30.650Z,7.53
2018-09-10T14:38:59.157Z,7.10
2018-09-10T14:41:27.599Z,5.23
2018-09-10T14:46:59.434Z,8.33
2018-09-10T14:49:27.881Z,6.73
2018-09-10T14:51:56.351Z,6.17
2018-09-10T14:54:24.865Z,9.23
2018-09-10T14:56:53.424Z,6.10
2018-09-10T14:59:21.865Z,6.17
2018-09-10T15:01:50.560Z,7.00
2018-09-10T15:04:19.203Z,6.50
2018-09-10T15:06:47.606Z,9.47
2018-09-10T15:09:16.279Z,8.43
2018-09-10T15:11:44.847Z,9.40
2018-09-10T15:14:13.305Z,6.10
2018-09-10T15:16:41.809Z,5.07
2018-09-10T15:19:10.482Z,8.97
2018-09-10T15:21:38.942Z,9.00
2018-09-10T15:24:07.618Z,6.50
2018-09-10T15:26:36.161Z,5.50
2018-09-10T15:29:04.664Z,7.77
2018-09-10T15:31:33.546Z,11.70
2018-09-10T15:34:02.202Z,6.47
2018-09-10T15:36:30.672Z,6.97
2018-09-10T15:38:59.138Z,6.13
2018-09-10T15:41:27.848Z,7.47
2018-09-10T15:43:56.410Z,5.60
2018-09-10T15:46:24.946Z,6.73
2018-09-10T15:48:53.437Z,6.77
2018-09-10T15:51:22.227Z,9.70
2018-09-10T15:53:50.813Z,11.57
2018-09-10T15:56:19.577Z,8.13
2018-09-10T15:58:48.104Z,9.53
2018-09-10T16:01:16.638Z,8.33
2018-09-10T16:03:45.253Z,8.33
2018-09-10T16:06:13.764Z,6.97
2018-09-10T16:08:42.494Z,9.33
2018-09-10T16:11:10.963Z,7.37
2018-09-10T16:13:39.551Z,6.77
2018-09-10T16:16:08.068Z,10.60
2018-09-10T16:18:36.586Z,7.33
2018-09-10T16:21:05.118Z,7.23
2018-09-10T16:23:33.580Z,12.53
2018-09-10T16:26:02.121Z,7.87
2018-09-10T16:28:30.933Z,12.43
2018-09-10T16:30:59.422Z,10.97
2018-09-10T16:33:27.992Z,9.10
2018-09-10T16:35:56.720Z,8.80
2018-09-10T16:38:25.291Z,10.17
2018-09-10T16:40:54.109Z,8.40
2018-09-10T16:43:22.683Z,12.50
2018-09-10T16:45:51.282Z,9.10
2018-09-10T16:48:20.145Z,8.53
2018-09-10T16:50:48.649Z,8.67
2018-09-10T16:53:17.154Z,9.20
2018-09-10T16:55:45.781Z,6.77
2018-09-10T16:58:14.296Z,7.77
2018-09-10T17:00:42.909Z,6.67
2018-09-10T17:03:11.455Z,10.73
2018-09-10T17:05:39.961Z,6.73
2018-09-10T17:08:08.497Z,9.40
2018-09-10T17:10:37.058Z,7.37
2018-09-10T17:13:05.595Z,6.57
2018-09-10T17:15:34.161Z,7.97
2018-09-10T17:18:02.685Z,10.80
2018-09-10T17:20:31.357Z,5.47
2018-09-10T17:22:59.849Z,9.07
2018-09-10T17:25:28.355Z,7.53
2018-09-10T17:27:57.111Z,6.07
2018-09-10T17:30:25.877Z,8.30
2018-09-10T17:32:54.262Z,8.87
2018-09-10T17:35:22.801Z,8.17
2018-09-10T17:37:51.459Z,9.90
2018-09-10T17:40:20.078Z,7.77
2018-09-10T17:42:48.950Z,8.07
2018-09-10T17:45:17.559Z,7.50
2018-09-10T17:47:46.063Z,8.50
2018-09-10T17:50:14.687Z,8.87
2018-09-10T17:52:43.202Z,8.77
2018-09-10T17:55:11.769Z,9.33
2018-09-10T17:57:40.199Z,9.70
2018-09-10T18:00:08.932Z,9.60
2018-09-10T18:02:37.446Z,9.57
2018-09-10T18:05:06.357Z,9.67
2018-09-10T18:07:34.828Z,5.67
2018-09-10T18:10:03.381Z,5.77
2018-09-10T18:12:31.834Z,5.23
2018-09-10T18:15:00.472Z,7.33
2018-09-10T18:17:28.961Z,7.10
2018-09-10T18:19:57.414Z,5.60
2018-09-10T18:22:25.923Z,11.47
2018-09-10T18:24:54.605Z,7.70
2018-09-10T18:27:23.086Z,7.87
2018-09-10T18:29:51.732Z,9.70
2018-09-10T18:32:20.764Z,8.60
2018-09-10T18:34:49.379Z,9.13
2018-09-10T18:37:18.013Z,10.53
2018-09-10T18:39:46.601Z,9.53
2018-09-10T18:42:15.144Z,8.67
2018-09-10T18:44:43.652Z,7.50
2018-09-10T18:47:12.183Z,10.80
2018-09-10T18:49:40.737Z,6.80
2018-09-10T18:52:09.265Z,6.37
2018-09-10T18:54:38.441Z,9.47
2018-09-10T18:57:07.093Z,5.23
2018-09-10T18:59:35.569Z,10.40
2018-09-10T19:02:04.093Z,8.87
2018-09-10T19:04:32.537Z,12.20
2018-09-10T19:07:01.184Z,9.27
2018-09-10T19:09:29.641Z,11.07
2018-09-10T19:11:58.313Z,8.80
2018-09-10T19:14:26.848Z,11.23
2018-09-10T19:16:55.320Z,8.10
2018-09-10T19:19:23.861Z,5.83
2018-09-10T19:21:52.446Z,6.73
2018-09-10T19:24:20.980Z,8.40
2018-09-10T19:26:49.909Z,12.33
2018-09-10T19:29:18.608Z,7.87
2018-09-10T19:31:47.169Z,8.67
2018-09-10T19:34:15.653Z,9.23
2018-09-10T19:36:44.445Z,9.80
2018-09-10T19:39:12.951Z,12.20
2018-09-10T19:41:41.427Z,9.97
2018-09-10T19:44:10.006Z,12.00
2018-09-10T19:46:38.445Z,10.23
2018-09-10T19:49:07.003Z,9.00
2018-09-10T19:51:35.628Z,7.77
2018-09-10T19:54:04.183Z,10.73
2018-09-10T19:56:32.784Z,11.47
2018-09-10T19:59:01.291Z,10.73
2018-09-10T20:01:29.783Z,8.87
2018-09-10T20:03:59.212Z,7.03
2018-09-10T20:06:27.841Z,9.03
2018-09-10T20:08:56.328Z,8.37
2018-09-10T20:11:24.828Z,9.67
2018-09-10T20:13:53.291Z,10.10
2018-09-10T20:16:21.983Z,11.47
2018-09-10T20:18:50.471Z,10.63
2018-09-10T20:21:19.019Z,8.57
2018-09-10T20:23:47.739Z,8.93
2018-09-10T20:26:16.257Z,8.60
2018-09-10T20:28:44.823Z,13.77
2018-09-10T20:31:13.781Z,8.63
2018-09-10T20:33:47.548Z,13.67
2018-09-10T20:36:16.104Z,7.87
2018-09-10T20:38:44.678Z,10.63
2018-09-10T20:41:13.231Z,12.60
2018-09-10T20:43:41.730Z,9.80
2018-09-10T20:46:10.346Z,12.17
2018-09-10T20:48:38.824Z,11.90
2018-09-10T20:51:07.298Z,10.00
2018-09-10T20:53:35.773Z,12.37
2018-09-10T20:56:04.254Z,11.50
2018-09-10T20:58:32.777Z,10.40
2018-09-10T21:01:01.305Z,10.70
2018-09-10T21:03:29.747Z,9.57
2018-09-10T21:05:58.174Z,11.90
2018-09-10T21:08:26.753Z,15.20
2018-09-10T21:10:56.459Z,12.40
2018-09-10T21:13:24.905Z,8.17
2018-09-10T21:15:53.396Z,11.13
2018-09-10T21:18:21.838Z,10.40
2018-09-10T21:20:50.339Z,11.03
2018-09-10T21:23:18.824Z,11.07
2018-09-10T21:25:47.315Z,11.00
2018-09-10T21:28:15.783Z,9.73
2018-09-10T21:30:44.224Z,12.10
2018-09-10T21:33:12.726Z,15.23
2018-09-10T21:35:41.800Z,13.53
2018-09-10T21:38:10.269Z,8.83
2018-09-10T21:40:38.817Z,12.83
2018-09-10T21:43:07.263Z,14.43
2018-09-10T21:45:35.700Z,8.37
2018-09-10T21:48:04.209Z,11.23
2018-09-10T21:50:32.661Z,9.60
2018-09-10T21:53:01.124Z,8.97
2018-09-10T21:55:29.645Z,9.67
2018-09-10T21:57:58.056Z,10.93
2018-09-10T22:00:26.613Z,12.93
2018-09-10T22:02:55.148Z,14.77
2018-09-10T22:05:23.777Z,9.13
2018-09-10T22:07:52.478Z,8.13
2018-09-10T22:10:21.607Z,9.47
2018-09-10T22:12:50.080Z,7.90
2018-09-10T22:15:18.573Z,6.43
2018-09-10T22:17:47.204Z,7.93
2018-09-10T22:20:15.678Z,7.63
2018-09-10T22:22:44.360Z,8.73
2018-09-10T22:25:13.032Z,8.43
2018-09-10T22:27:41.765Z,6.70
2018-09-10T22:30:10.424Z,7.87
2018-09-10T22:32:38.989Z,7.07
2018-09-10T22:35:07.754Z,8.83
2018-09-10T22:37:36.198Z,8.10
2018-09-10T22:40:04.947Z,10.63
2018-09-10T22:42:33.472Z,8.40
2018-09-10T22:45:02.041Z,8.30
2018-09-10T22:47:30.775Z,6.93
2018-09-10T22:49:59.269Z,7.00
2018-09-10T22:52:27.857Z,8.80
2018-09-10T22:54:56.317Z,10.93
2018-09-10T22:57:24.980Z,8.33
2018-09-10T22:59:53.486Z,8.13
2018-09-10T23:02:21.951Z,7.60
2018-09-10T23:04:50.475Z,11.03
2018-09-10T23:07:19.014Z,8.17
2018-09-10T23:09:47.776Z,6.43
2018-09-10T23:12:16.818Z,7.30
2018-09-10T23:14:45.248Z,8.27
2018-09-10T23:17:13.936Z,10.43
2018-09-10T23:19:42.549Z,7.27
2018-09-10T23:22:11.006Z,9.00
2018-09-10T23:24:39.571Z,8.07
2018-09-10T23:27:08.142Z,8.33
2018-09-10T23:29:36.637Z,7.43
2018-09-10T23:32:05.177Z,7.63
2018-09-10T23:34:33.642Z,7.00
2018-09-10T23:37:02.144Z,5.13
2018-09-10T23:39:30.708Z,13.37
2018-09-10T23:41:59.338Z,6.50
2018-09-10T23:44:27.793Z,7.73
2018-09-10T23:46:56.253Z,7.33
2018-09-10T23:49:24.801Z,6.93
2018-09-10T23:51:53.398Z,9.03
2018-09-10T23:54:21.839Z,9.77
2018-09-10T23:56:50.498Z,14.30
2018-09-10T23:59:19.208Z,7.33
